Time;durP1;ratioP1;P1;durP2;ratioP2;P2;SDS_P1;SDS_P2;PMS_P1;PMS_P2;Temp;Humidity;BMP_temperature;BMP_pressure;BME280_temperature;BME280_humidity;BME280_pressure;Samples;Min_cycle;Max_cycle;Signal;HPM_P1;HPM_P2
2022/06/09 00:02:19;;;;;;;9.85;9.55;;;15.20;99.90;;;;;;4962108;28;20229;-88
2022/06/09 00:04:48;;;;;;;9.82;9.52;;;15.20;99.90;;;;;;4959444;28;20246;-88
2022/06/09 00:07:21;;;;;;;9.60;9.30;;;15.20;99.90;;;;;;4961169;28;20391;-89
2022/06/09 00:09:56;;;;;;;9.82;9.52;;;15.20;99.90;;;;;;4960498;28;20297;-89
2022/06/09 00:12:25;;;;;;;9.80;9.50;;;15.20;99.90;;;;;;4961084;28;20265;-89
2022/06/09 00:14:56;;;;;;;9.75;9.45;;;15.20;99.90;;;;;;4960064;28;20374;-88
2022/06/09 00:17:24;;;;;;;9.80;9.50;;;15.20;99.90;;;;;;4960214;28;20301;-89
2022/06/09 00:19:54;;;;;;;9.60;9.30;;;15.20;99.90;;;;;;4960286;28;20354;-88
2022/06/09 00:22:23;;;;;;;9.80;9.50;;;15.20;99.90;;;;;;4960829;28;20317;-88
2022/06/09 00:27:39;;;;;;;9.68;9.38;;;15.10;99.90;;;;;;4958309;28;20230;-88
2022/06/09 00:30:10;;;;;;;9.50;9.20;;;15.10;99.90;;;;;;4960989;28;20267;-88
2022/06/09 00:32:38;;;;;;;9.90;9.60;;;15.10;99.90;;;;;;4961168;28;20329;-88
2022/06/09 00:35:09;;;;;;;10.10;9.80;;;15.10;99.90;;;;;;4959858;28;20297;-89
2022/06/09 00:37:39;;;;;;;9.90;9.60;;;15.10;99.90;;;;;;4960277;28;20249;-89
2022/06/09 00:40:19;;;;;;;9.50;9.20;;;15.10;99.90;;;;;;4960774;28;20289;-87
2022/06/09 00:42:47;;;;;;;9.45;9.15;;;15.10;99.90;;;;;;4959876;28;20234;-88
2022/06/09 00:45:35;;;;;;;9.30;9.00;;;15.00;99.90;;;;;;4959801;28;20290;-88
2022/06/09 00:48:22;;;;;;;9.45;9.15;;;15.00;99.90;;;;;;4959845;28;20325;-88
2022/06/09 00:51:01;;;;;;;9.15;8.85;;;15.00;99.90;;;;;;4960609;28;20254;-88
2022/06/09 00:53:38;;;;;;;9.18;8.88;;;15.00;99.90;;;;;;4959991;28;20238;-88
2022/06/09 00:56:17;;;;;;;9.55;9.25;;;14.90;99.90;;;;;;4959399;28;20300;-89
2022/06/09 00:58:48;;;;;;;9.57;9.27;;;14.80;99.90;;;;;;4960880;28;20321;-89
2022/06/09 01:01:23;;;;;;;9.27;8.98;;;14.80;99.90;;;;;;4960181;28;20234;-88
2022/06/09 01:04:02;;;;;;;9.50;9.20;;;14.80;99.90;;;;;;4961538;28;20245;-89
2022/06/09 01:06:34;;;;;;;9.45;9.15;;;14.80;99.90;;;;;;4963590;28;20234;-88
2022/06/09 01:09:09;;;;;;;9.48;9.18;;;14.80;99.90;;;;;;4963565;28;20234;-88
2022/06/09 01:11:47;;;;;;;9.68;9.38;;;14.80;99.90;;;;;;4960843;28;20261;-88
2022/06/09 01:14:19;;;;;;;9.60;9.30;;;14.80;99.90;;;;;;4959918;28;20265;-88
2022/06/09 01:17:05;;;;;;;9.70;9.40;;;14.70;99.90;;;;;;4958639;28;20262;-88
2022/06/09 01:19:59;;;;;;;9.50;9.20;;;14.70;99.90;;;;;;4959391;28;20277;-89
2022/06/09 01:23:21;;;;;;;9.50;9.20;;;14.70;99.90;;;;;;4959302;28;20359;-89
2022/06/09 01:26:55;;;;;;;9.50;9.20;;;14.70;99.90;;;;;;4942980;28;20236;-89
2022/06/09 01:30:09;;;;;;;9.30;9.00;;;14.70;99.90;;;;;;4930238;28;20238;-89
2022/06/09 01:32:44;;;;;;;9.50;9.20;;;14.60;99.90;;;;;;4975908;28;20214;-89
2022/06/09 01:35:50;;;;;;;9.25;8.95;;;14.60;99.90;;;;;;5155437;27;20517;-85
2022/06/09 01:38:18;;;;;;;9.45;9.15;;;14.60;99.90;;;;;;5136427;27;20224;-86
2022/06/09 01:40:48;;;;;;;9.40;9.10;;;14.50;99.90;;;;;;5135627;27;20205;-86
2022/06/09 01:43:17;;;;;;;9.70;9.40;;;14.50;99.90;;;;;;5132998;27;20228;-88
2022/06/09 01:45:56;;;;;;;9.43;9.13;;;14.60;99.90;;;;;;5118962;27;20229;-88
2022/06/09 01:48:25;;;;;;;9.43;9.13;;;14.50;99.90;;;;;;5117286;27;20256;-88
2022/06/09 01:51:03;;;;;;;9.45;9.15;;;14.50;99.90;;;;;;5116365;28;20233;-88
2022/06/09 01:53:44;;;;;;;9.02;8.73;;;14.50;99.90;;;;;;5117030;28;20331;-89
2022/06/09 01:56:19;;;;;;;9.32;9.02;;;14.50;99.90;;;;;;5127494;27;20217;-88
2022/06/09 01:58:51;;;;;;;9.32;9.02;;;14.50;99.90;;;;;;5131766;27;20228;-88
2022/06/09 02:01:28;;;;;;;9.13;8.82;;;14.50;99.90;;;;;;5123738;28;20236;-88
2022/06/09 02:04:08;;;;;;;9.35;9.05;;;14.60;99.90;;;;;;5134261;27;20212;-86
2022/06/09 02:06:46;;;;;;;9.40;9.10;;;14.50;99.90;;;;;;5136126;27;20217;-85
2022/06/09 02:09:16;;;;;;;9.40;9.10;;;14.50;99.90;;;;;;5132205;27;20246;-88
2022/06/09 02:11:53;;;;;;;9.40;9.10;;;14.50;99.90;;;;;;5117702;27;20227;-89
2022/06/09 02:14:30;;;;;;;9.32;9.02;;;14.60;99.90;;;;;;5117360;28;20306;-88
2022/06/09 02:16:59;;;;;;;9.20;8.90;;;14.50;99.90;;;;;;5120824;27;20229;-88
2022/06/09 02:19:29;;;;;;;9.50;9.20;;;14.50;99.90;;;;;;5118368;28;20315;-88
2022/06/09 02:22:01;;;;;;;9.60;9.30;;;14.60;99.90;;;;;;5117920;27;20256;-89
2022/06/09 02:24:30;;;;;;;9.80;9.50;;;14.50;99.90;;;;;;5114947;28;20233;-88
2022/06/09 02:26:57;;;;;;;9.77;9.48;;;14.50;99.90;;;;;;5114703;28;20316;-88
2022/06/09 02:29:26;;;;;;;9.75;9.45;;;14.50;99.90;;;;;;5114831;28;20251;-88
2022/06/09 02:31:55;;;;;;;9.70;9.40;;;14.50;99.90;;;;;;5114397;27;20264;-88
2022/06/09 02:34:28;;;;;;;9.98;9.68;;;14.50;99.90;;;;;;5112549;27;20233;-87
2022/06/09 02:36:59;;;;;;;9.70;9.40;;;14.40;99.90;;;;;;5114467;27;20259;-87
2022/06/09 02:39:26;;;;;;;9.68;9.38;;;14.40;99.90;;;;;;5114311;27;20229;-88
2022/06/09 02:41:55;;;;;;;9.90;9.60;;;14.40;99.90;;;;;;5114247;27;20233;-87
2022/06/09 02:44:25;;;;;;;9.95;9.65;;;14.40;99.90;;;;;;5115026;28;20253;-87
2022/06/09 02:46:54;;;;;;;9.90;9.60;;;14.40;99.90;;;;;;5100134;27;20233;-87
2022/06/09 02:49:24;;;;;;;9.70;9.40;;;14.40;99.90;;;;;;5100865;28;20261;-88
2022/06/09 02:51:54;;;;;;;9.93;9.63;;;14.40;99.90;;;;;;5100868;28;20225;-87
2022/06/09 02:54:31;;;;;;;10.30;10.00;;;14.30;99.90;;;;;;5101922;28;20293;-86
2022/06/09 02:57:01;;;;;;;10.20;9.90;;;14.30;99.90;;;;;;5103558;28;20252;-88
2022/06/09 02:59:30;;;;;;;10.40;10.10;;;14.30;99.90;;;;;;5100731;28;20264;-87
2022/06/09 03:02:01;;;;;;;10.33;10.03;;;14.20;99.90;;;;;;5101656;28;20272;-88
2022/06/09 03:04:29;;;;;;;10.40;10.10;;;14.20;99.90;;;;;;5100488;28;20281;-88
2022/06/09 03:06:58;;;;;;;10.07;9.77;;;14.20;99.90;;;;;;5100271;28;20264;-88
2022/06/09 03:09:40;;;;;;;10.23;9.93;;;14.20;99.90;;;;;;5100492;28;20326;-87
2022/06/09 03:12:09;;;;;;;10.30;10.00;;;14.20;99.90;;;;;;5100424;28;20248;-88
2022/06/09 03:14:37;;;;;;;10.17;9.87;;;14.20;99.90;;;;;;5099716;28;20239;-88
2022/06/09 03:17:06;;;;;;;10.13;9.82;;;14.20;99.90;;;;;;5099603;28;20320;-88
2022/06/09 03:19:35;;;;;;;10.40;10.10;;;14.30;99.90;;;;;;5100080;28;20232;-88
2022/06/09 03:22:04;;;;;;;9.98;9.68;;;14.30;99.90;;;;;;5099572;28;20241;-88
2022/06/09 03:24:44;;;;;;;9.80;9.50;;;14.30;99.90;;;;;;5101727;28;21013;-88
2022/06/09 03:27:12;;;;;;;10.25;9.95;;;14.30;99.90;;;;;;5100941;28;20317;-88
2022/06/09 03:29:41;;;;;;;10.02;9.73;;;14.30;99.90;;;;;;5099914;28;20233;-87
2022/06/09 03:32:10;;;;;;;9.90;9.60;;;14.30;99.90;;;;;;5100087;28;20299;-87
2022/06/09 03:34:41;;;;;;;10.07;9.77;;;14.30;99.90;;;;;;5098674;28;20381;-88
2022/06/09 03:37:09;;;;;;;9.93;9.63;;;14.30;99.90;;;;;;5099869;28;20229;-88
2022/06/09 03:39:49;;;;;;;9.93;9.63;;;14.40;99.90;;;;;;5100521;28;20218;-88
2022/06/09 03:42:17;;;;;;;10.20;9.90;;;14.40;99.90;;;;;;5099715;28;20317;-87
2022/06/09 03:44:46;;;;;;;9.90;9.60;;;14.40;99.90;;;;;;5099378;28;20230;-88
2022/06/09 03:47:16;;;;;;;10.00;9.70;;;14.40;99.90;;;;;;5099802;28;20267;-87
2022/06/09 03:49:45;;;;;;;10.03;9.73;;;14.40;99.90;;;;;;5100728;28;20295;-88
2022/06/09 03:52:15;;;;;;;10.13;9.83;;;14.30;99.90;;;;;;5100038;28;20256;-87
2022/06/09 03:54:54;;;;;;;10.00;9.70;;;14.40;99.90;;;;;;5106027;28;20248;-86
2022/06/09 03:57:22;;;;;;;10.13;9.83;;;14.30;99.90;;;;;;5120135;27;20243;-85
2022/06/09 03:59:53;;;;;;;10.00;9.70;;;14.40;99.90;;;;;;5121660;27;20233;-85
2022/06/09 04:02:23;;;;;;;10.35;10.05;;;14.50;99.90;;;;;;5121617;27;20218;-84
2022/06/09 04:04:52;;;;;;;10.18;9.88;;;14.50;99.90;;;;;;5121157;27;20209;-84
2022/06/09 04:07:20;;;;;;;10.18;9.88;;;14.50;99.90;;;;;;5121336;27;20236;-86
2022/06/09 04:09:59;;;;;;;10.30;10.00;;;14.50;99.90;;;;;;5121005;27;20228;-87
2022/06/09 04:12:28;;;;;;;9.95;9.65;;;14.50;99.90;;;;;;5120855;27;20213;-86
2022/06/09 04:14:57;;;;;;;10.02;9.73;;;14.50;99.90;;;;;;5119761;28;21095;-85
2022/06/09 04:17:26;;;;;;;10.50;10.20;;;14.50;99.90;;;;;;5107300;28;20252;-87
2022/06/09 04:19:56;;;;;;;10.03;9.73;;;14.50;99.90;;;;;;5103508;28;20234;-87
2022/06/09 04:22:26;;;;;;;10.10;9.80;;;14.50;99.90;;;;;;5101153;28;20240;-87
2022/06/09 04:25:04;;;;;;;9.82;9.52;;;14.50;99.90;;;;;;5109376;28;20314;-86
2022/06/09 04:27:33;;;;;;;9.82;9.52;;;14.50;99.90;;;;;;5114088;28;20237;-87
2022/06/09 04:30:02;;;;;;;9.98;9.68;;;14.50;99.90;;;;;;5106461;28;20253;-88
2022/06/09 04:32:33;;;;;;;9.95;9.65;;;14.50;99.90;;;;;;5110271;28;20223;-88
2022/06/09 04:35:05;;;;;;;10.10;9.80;;;14.40;99.90;;;;;;5109052;28;20229;-89
2022/06/09 04:40:33;;;;;;;9.90;9.60;;;14.40;99.90;;;;;;5101156;28;20218;-88
2022/06/09 04:43:01;;;;;;;10.05;9.75;;;14.40;99.90;;;;;;5101167;28;20233;-88
2022/06/09 04:45:29;;;;;;;10.30;10.00;;;14.40;99.90;;;;;;5099586;28;20325;-88
2022/06/09 04:47:57;;;;;;;10.60;10.30;;;14.40;99.90;;;;;;5100138;28;20229;-89
2022/06/09 04:50:27;;;;;;;10.53;10.23;;;14.40;99.90;;;;;;5099398;28;20233;-88
2022/06/09 04:52:57;;;;;;;10.07;9.77;;;14.40;99.90;;;;;;5099035;28;20217;-88
2022/06/09 04:55:28;;;;;;;10.23;9.93;;;14.50;99.90;;;;;;5098710;28;20339;-87
2022/06/09 04:57:58;;;;;;;10.35;10.05;;;14.50;99.90;;;;;;5099337;28;20224;-88
2022/06/09 05:00:27;;;;;;;10.02;9.73;;;14.60;99.90;;;;;;5100261;28;20252;-88
2022/06/09 05:08:19;;;;;;;10.23;9.93;;;14.60;99.90;;;;;;5072832;28;20230;-83
2022/06/09 05:13:35;;;;;;;10.25;9.95;;;14.70;99.90;;;;;;5075075;28;20261;-83
2022/06/09 05:16:05;;;;;;;10.20;9.90;;;14.80;99.90;;;;;;5064167;28;20290;-84
2022/06/09 05:18:34;;;;;;;10.50;10.20;;;14.80;99.90;;;;;;5063223;28;20246;-83
2022/06/09 05:21:03;;;;;;;10.70;10.40;;;14.90;99.90;;;;;;5063231;28;20295;-84
2022/06/09 05:23:33;;;;;;;10.65;10.35;;;14.90;99.90;;;;;;5062354;28;20325;-84
2022/06/09 05:26:39;;;;;;;10.48;10.18;;;15.00;99.90;;;;;;5062664;28;20231;-84
2022/06/09 05:29:08;;;;;;;10.60;10.30;;;15.10;99.90;;;;;;5067630;28;20234;-86
2022/06/09 05:31:37;;;;;;;10.32;10.02;;;15.10;99.90;;;;;;5061106;28;20298;-85
2022/06/09 05:34:06;;;;;;;10.45;10.15;;;15.10;99.90;;;;;;5061626;28;20244;-83
2022/06/09 05:36:35;;;;;;;10.20;9.90;;;15.10;99.90;;;;;;5061140;28;20227;-83
2022/06/09 05:44:56;;;;;;;10.30;10.00;;;15.20;99.90;;;;;;5063307;28;20243;-84
2022/06/09 05:47:27;;;;;;;10.25;9.95;;;15.10;99.90;;;;;;5063166;28;20278;-85
2022/06/09 05:49:55;;;;;;;10.70;10.40;;;15.20;99.90;;;;;;5063371;28;20238;-84
2022/06/09 05:52:26;;;;;;;10.23;9.93;;;15.20;99.90;;;;;;5064329;28;20235;-84
2022/06/09 05:54:55;;;;;;;10.50;10.20;;;15.30;99.90;;;;;;5065375;28;20234;-85
2022/06/09 06:00:11;;;;;;;10.43;10.13;;;15.40;99.90;;;;;;5066971;28;20706;-85
2022/06/09 06:02:40;;;;;;;10.20;9.90;;;15.50;99.90;;;;;;5065586;28;20231;-85
2022/06/09 06:06:33;;;;;;;10.07;9.77;;;15.50;99.90;;;;;;5064440;28;20231;-85
2022/06/09 06:07:57;;;;;;;10.40;10.10;;;15.50;99.90;;;;;;5062319;28;20212;-85
2022/06/09 06:10:27;;;;;;;10.48;10.18;;;15.60;99.90;;;;;;5062504;28;20294;-85
2022/06/09 06:12:58;;;;;;;10.52;10.23;;;15.70;99.90;;;;;;5063040;28;20254;-84
2022/06/09 06:15:26;;;;;;;10.52;10.23;;;15.70;99.90;;;;;;5062293;28;20242;-84
2022/06/09 06:17:54;;;;;;;10.48;10.18;;;15.60;99.90;;;;;;5062562;28;20964;-85
2022/06/09 06:20:24;;;;;;;10.63;10.32;;;15.60;99.90;;;;;;5062855;28;20234;-84
2022/06/09 06:22:55;;;;;;;10.48;10.18;;;15.50;99.90;;;;;;5065684;28;20322;-84
2022/06/09 06:25:24;;;;;;;10.60;10.30;;;15.50;99.90;;;;;;5069121;28;20238;-84
2022/06/09 06:27:52;;;;;;;10.65;10.35;;;15.40;99.90;;;;;;5068256;28;20247;-85
2022/06/09 06:33:11;;;;;;;10.60;10.30;;;15.50;99.90;;;;;;5070642;28;20340;-84
2022/06/09 06:35:40;;;;;;;10.40;10.10;;;15.60;99.90;;;;;;5069002;28;20261;-84
2022/06/09 06:38:09;;;;;;;10.63;10.32;;;15.70;99.90;;;;;;5068613;28;20320;-84
2022/06/09 06:40:39;;;;;;;10.63;10.32;;;15.70;99.90;;;;;;5067701;28;20245;-84
2022/06/09 06:43:08;;;;;;;10.88;10.57;;;15.70;99.90;;;;;;5068412;28;20234;-85
2022/06/09 06:45:46;;;;;;;10.77;10.48;;;15.80;99.90;;;;;;5067305;28;20231;-84
2022/06/09 06:48:16;;;;;;;10.80;10.50;;;15.90;99.90;;;;;;5068258;28;20226;-85
2022/06/09 06:50:45;;;;;;;10.70;10.40;;;16.00;99.90;;;;;;5068599;28;20238;-85
2022/06/09 06:53:15;;;;;;;10.48;10.18;;;16.00;99.90;;;;;;5067887;28;20246;-85
2022/06/09 06:55:44;;;;;;;10.43;10.13;;;16.10;99.90;;;;;;5066807;28;20230;-85
2022/06/09 06:58:13;;;;;;;10.52;10.23;;;16.20;99.90;;;;;;5067358;28;20282;-84
2022/06/09 07:00:56;;;;;;;10.55;10.25;;;16.20;99.90;;;;;;5066922;28;20289;-85
2022/06/09 07:03:24;;;;;;;10.93;10.63;;;16.40;99.90;;;;;;5067086;28;20306;-85
2022/06/09 07:05:51;;;;;;;10.60;10.30;;;16.60;99.90;;;;;;5067300;28;20353;-85
2022/06/09 07:08:23;;;;;;;10.43;10.13;;;16.80;99.90;;;;;;5068278;28;20230;-85
2022/06/09 07:10:52;;;;;;;10.45;10.15;;;16.90;99.90;;;;;;5067371;28;20698;-85
2022/06/09 07:13:19;;;;;;;10.60;10.30;;;17.00;99.90;;;;;;5067938;28;20261;-86
2022/06/09 07:15:59;;;;;;;10.35;10.05;;;17.00;99.90;;;;;;5067028;28;20247;-85
2022/06/09 07:18:27;;;;;;;10.35;10.05;;;17.00;99.90;;;;;;5067548;28;20238;-85
2022/06/09 07:20:56;;;;;;;10.20;9.90;;;17.00;99.90;;;;;;5067851;28;20298;-85
2022/06/09 07:23:26;;;;;;;10.65;10.35;;;17.10;99.90;;;;;;5067389;28;20231;-84
2022/06/09 07:25:55;;;;;;;10.50;10.20;;;17.10;99.90;;;;;;5077399;28;20358;-85
2022/06/09 07:28:25;;;;;;;10.30;10.00;;;17.20;99.90;;;;;;5077946;28;20227;-85
2022/06/09 07:31:03;;;;;;;10.45;10.15;;;17.30;99.90;;;;;;5072963;28;20231;-84
2022/06/09 07:33:35;;;;;;;10.50;10.20;;;17.40;99.90;;;;;;5070190;28;20243;-86
2022/06/09 07:36:04;;;;;;;10.38;10.07;;;17.40;99.90;;;;;;5068238;28;20353;-84
2022/06/09 07:38:33;;;;;;;10.60;10.30;;;17.50;99.90;;;;;;5067787;28;20245;-85
2022/06/09 07:41:01;;;;;;;10.52;10.23;;;17.30;99.90;;;;;;5068195;28;20235;-85
2022/06/09 07:43:29;;;;;;;10.50;10.20;;;17.30;99.90;;;;;;5067223;28;20231;-85
2022/06/09 07:46:09;;;;;;;10.50;10.20;;;17.50;99.90;;;;;;5067305;28;20226;-85
2022/06/09 07:48:37;;;;;;;10.52;10.23;;;17.70;99.90;;;;;;5066904;28;20309;-85
2022/06/09 07:51:07;;;;;;;10.50;10.20;;;18.00;99.90;;;;;;5067204;28;20293;-85
2022/06/09 07:53:36;;;;;;;10.25;9.95;;;18.10;99.90;;;;;;5067417;28;20235;-85
2022/06/09 07:56:06;;;;;;;10.40;10.10;;;18.10;99.90;;;;;;5067362;28;20238;-85
2022/06/09 07:58:35;;;;;;;10.27;9.98;;;18.00;99.90;;;;;;5067833;28;20226;-85
2022/06/09 08:01:14;;;;;;;10.27;9.98;;;17.90;99.90;;;;;;5068280;28;20235;-85
2022/06/09 08:03:42;;;;;;;10.32;10.02;;;17.90;99.90;;;;;;5066279;28;20259;-85
2022/06/09 08:06:12;;;;;;;10.20;9.90;;;18.00;99.90;;;;;;5065714;28;20322;-85
2022/06/09 08:08:41;;;;;;;10.30;10.00;;;18.10;99.90;;;;;;5066829;28;20234;-85
2022/06/09 08:11:12;;;;;;;10.15;9.85;;;18.30;99.90;;;;;;5067776;28;20786;-85
2022/06/09 08:13:41;;;;;;;10.30;10.00;;;18.60;99.90;;;;;;5067207;28;20269;-85
2022/06/09 08:16:12;;;;;;;10.10;9.80;;;18.80;99.90;;;;;;5067013;28;20298;-85
2022/06/09 08:18:40;;;;;;;9.65;9.35;;;18.80;99.90;;;;;;5067556;28;20230;-85
2022/06/09 08:21:09;;;;;;;9.68;9.38;;;18.70;99.90;;;;;;5067507;28;20231;-85
2022/06/09 08:23:38;;;;;;;10.20;9.90;;;18.60;99.90;;;;;;5068238;28;20236;-85
2022/06/09 08:26:08;;;;;;;10.10;9.80;;;18.30;99.90;;;;;;5066875;28;20325;-84
2022/06/09 08:28:37;;;;;;;10.25;9.95;;;18.30;99.90;;;;;;5067094;28;20227;-84
2022/06/09 08:31:07;;;;;;;10.35;10.05;;;18.30;99.90;;;;;;5068090;28;20265;-84
2022/06/09 08:33:47;;;;;;;9.90;9.60;;;18.40;99.90;;;;;;5069176;28;20257;-84
2022/06/09 08:36:16;;;;;;;10.02;9.73;;;18.50;99.90;;;;;;5068715;28;20257;-84
2022/06/09 08:38:48;;;;;;;10.27;9.98;;;18.50;99.90;;;;;;5069234;28;20234;-84
2022/06/09 08:41:36;;;;;;;10.13;9.82;;;18.70;99.90;;;;;;5070079;28;20230;-84
2022/06/09 08:44:21;;;;;;;10.15;9.85;;;19.00;99.90;;;;;;5068555;28;20278;-84
2022/06/09 08:46:58;;;;;;;10.30;10.00;;;19.10;99.90;;;;;;5069550;28;20258;-84
2022/06/09 08:49:46;;;;;;;10.98;10.68;;;18.80;99.90;;;;;;5069417;28;20234;-85
2022/06/09 08:52:27;;;;;;;10.70;10.40;;;18.90;99.90;;;;;;5070142;28;20202;-84
2022/06/09 08:55:02;;;;;;;10.60;10.30;;;19.00;99.90;;;;;;5069138;28;20234;-84
2022/06/09 09:03:15;;;;;;;11.00;10.70;;;19.30;99.90;;;;;;5071451;28;20231;-85
2022/06/09 09:05:53;;;;;;;10.80;10.50;;;19.30;99.90;;;;;;5070897;28;20373;-85
2022/06/09 09:08:22;;;;;;;10.20;9.90;;;19.40;99.90;;;;;;5071156;28;20336;-85
2022/06/09 09:10:59;;;;;;;10.00;9.70;;;19.20;99.90;;;;;;5072211;28;20293;-84
2022/06/09 09:13:47;;;;;;;10.15;9.85;;;19.20;99.90;;;;;;5072998;28;20238;-85
2022/06/09 09:16:25;;;;;;;10.10;9.80;;;19.20;99.90;;;;;;5074507;28;20250;-85
2022/06/09 09:18:56;;;;;;;10.13;9.82;;;19.10;99.90;;;;;;5079327;28;20310;-85
2022/06/09 09:21:59;;;;;;;10.20;9.90;;;19.00;99.90;;;;;;5079345;28;20215;-84
2022/06/09 09:24:37;;;;;;;9.93;9.63;;;18.90;99.90;;;;;;5077601;28;20234;-85
2022/06/09 09:27:17;;;;;;;10.07;9.77;;;19.00;99.90;;;;;;5077516;28;20231;-85
2022/06/09 09:29:54;;;;;;;10.10;9.80;;;18.90;99.90;;;;;;5079142;28;20230;-84
2022/06/09 09:35:20;;;;;;;10.23;9.93;;;18.80;99.90;;;;;;5078777;28;20221;-84
2022/06/09 09:37:57;;;;;;;10.48;10.18;;;18.40;99.90;;;;;;5079268;28;20227;-84
2022/06/09 09:40:35;;;;;;;10.57;10.27;;;18.40;99.90;;;;;;5078880;28;20230;-85
2022/06/09 09:43:14;;;;;;;11.00;10.70;;;18.40;99.90;;;;;;5078448;28;20203;-85
2022/06/09 09:45:44;;;;;;;10.70;10.40;;;18.70;99.90;;;;;;5079309;28;20222;-85
2022/06/09 09:48:39;;;;;;;10.90;10.60;;;19.00;99.90;;;;;;5078629;28;20269;-85
2022/06/09 09:51:12;;;;;;;10.52;10.23;;;19.10;99.90;;;;;;5078700;28;20215;-84
2022/06/09 09:53:56;;;;;;;10.60;10.30;;;19.20;99.90;;;;;;5078753;28;20222;-85
2022/06/09 09:56:46;;;;;;;10.52;10.23;;;19.20;99.90;;;;;;5075852;28;20242;-85
2022/06/09 09:59:31;;;;;;;10.90;10.60;;;19.50;99.90;;;;;;5072691;28;20246;-85
2022/06/09 10:10:41;;;;;;;10.65;10.35;;;20.10;99.90;;;;;;5029053;28;20232;-85
2022/06/09 10:13:18;;;;;;;11.00;10.70;;;20.00;99.90;;;;;;5051857;28;20233;-85
2022/06/09 10:15:46;;;;;;;10.60;10.30;;;20.00;99.90;;;;;;5068912;28;20313;-84
2022/06/09 10:18:24;;;;;;;10.18;9.88;;;20.20;99.90;;;;;;5069046;28;20300;-85
2022/06/09 10:21:10;;;;;;;10.35;10.05;;;20.20;99.90;;;;;;5068472;28;20290;-85
2022/06/09 10:23:57;;;;;;;10.23;9.93;;;20.70;99.90;;;;;;5070017;28;20334;-85
2022/06/09 10:26:35;;;;;;;10.20;9.90;;;20.90;99.90;;;;;;5069814;28;20218;-85
2022/06/09 10:29:08;;;;;;;10.40;10.10;;;21.10;99.90;;;;;;5069263;28;20261;-85
2022/06/09 10:31:46;;;;;;;10.30;10.00;;;21.20;99.90;;;;;;5069621;28;20272;-85
2022/06/09 10:34:27;;;;;;;10.48;10.18;;;21.40;99.90;;;;;;5073936;28;20238;-85
2022/06/09 10:37:01;;;;;;;10.80;10.50;;;21.10;99.90;;;;;;5072543;28;20267;-85
2022/06/09 10:39:40;;;;;;;10.65;10.35;;;21.20;99.90;;;;;;5074492;28;20241;-85
2022/06/09 10:42:28;;;;;;;10.70;10.40;;;21.10;99.90;;;;;;5074809;28;20289;-85
2022/06/09 10:45:23;;;;;;;10.55;10.25;;;21.00;99.90;;;;;;5071957;28;20242;-86
2022/06/09 10:56:48;;;;;;;10.50;10.20;;;21.40;99.90;;;;;;5069372;28;20239;-85
2022/06/09 10:59:36;;;;;;;10.80;10.50;;;21.10;99.90;;;;;;5069149;28;20234;-85
2022/06/09 11:02:14;;;;;;;10.70;10.40;;;20.90;99.90;;;;;;5070855;28;20239;-86
2022/06/09 11:04:42;;;;;;;10.40;10.10;;;20.90;99.90;;;;;;5096863;22;20320;-80
2022/06/09 11:07:39;;;;;;;10.70;10.40;;;20.80;99.90;;;;;;5082805;28;20300;-82
2022/06/09 11:10:33;;;;;;;10.57;10.27;;;20.80;99.90;;;;;;5091825;28;20186;-82
2022/06/09 11:13:41;;;;;;;10.45;10.15;;;20.30;99.90;;;;;;5090005;28;20225;-82
2022/06/09 11:16:18;;;;;;;10.52;10.23;;;19.90;99.90;;;;;;5064313;28;20226;-84
2022/06/09 11:19:02;;;;;;;10.27;9.98;;;19.90;99.90;;;;;;5066123;28;20226;-82
2022/06/09 11:21:38;;;;;;;10.50;10.20;;;19.90;99.90;;;;;;5062418;28;20242;-81
2022/06/09 11:24:26;;;;;;;10.55;10.25;;;19.90;99.90;;;;;;5062541;28;20269;-82
2022/06/09 11:27:03;;;;;;;10.60;10.30;;;20.00;99.90;;;;;;5060706;28;20238;-82
2022/06/09 11:29:50;;;;;;;11.10;10.80;;;19.80;99.90;;;;;;5061267;28;20239;-82
2022/06/09 11:32:30;;;;;;;10.80;10.50;;;20.00;99.90;;;;;;5061163;28;20223;-82
2022/06/09 11:35:17;;;;;;;10.90;10.60;;;20.00;99.90;;;;;;5061013;28;20293;-82
2022/06/09 11:38:04;;;;;;;10.60;10.30;;;20.00;99.90;;;;;;5062250;28;20258;-82
2022/06/09 11:40:40;;;;;;;10.75;10.45;;;20.30;99.90;;;;;;5060526;28;20230;-82
2022/06/09 11:43:43;;;;;;;10.82;10.52;;;20.50;99.90;;;;;;5059772;28;20237;-82
2022/06/09 11:46:18;;;;;;;10.55;10.25;;;20.60;99.90;;;;;;5060080;28;20230;-82
2022/06/09 11:48:50;;;;;;;10.55;10.25;;;20.80;99.90;;;;;;5060999;28;20238;-82
2022/06/09 11:51:21;;;;;;;10.40;10.10;;;21.20;99.90;;;;;;5060228;28;21161;-82
2022/06/09 11:53:52;;;;;;;10.48;10.18;;;21.40;99.90;;;;;;5059074;28;20314;-82
2022/06/09 11:56:36;;;;;;;10.60;10.30;;;21.50;99.90;;;;;;5060470;28;20261;-82
2022/06/09 11:59:16;;;;;;;10.43;10.13;;;21.70;99.90;;;;;;5061041;28;20326;-82
2022/06/09 12:01:59;;;;;;;10.30;10.00;;;21.50;99.90;;;;;;5064027;28;20241;-82
2022/06/09 12:05:09;;;;;;;10.35;10.05;;;21.60;99.90;;;;;;5075574;28;20238;-82
2022/06/09 12:07:53;;;;;;;10.60;10.30;;;21.70;99.90;;;;;;5075033;28;20234;-79
2022/06/09 12:10:42;;;;;;;10.00;9.70;;;21.70;99.90;;;;;;5062028;28;20235;-80
2022/06/09 12:13:23;;;;;;;10.30;10.00;;;22.00;99.90;;;;;;5060926;28;20238;-81
2022/06/09 12:16:23;;;;;;;10.20;9.90;;;21.40;99.90;;;;;;5059902;28;20239;-83
2022/06/09 12:19:04;;;;;;;10.07;9.77;;;21.40;99.90;;;;;;5059389;28;20294;-82
2022/06/09 12:21:36;;;;;;;10.00;9.70;;;21.60;99.90;;;;;;5060366;28;20266;-82
2022/06/09 12:24:33;;;;;;;10.00;9.70;;;21.90;99.90;;;;;;5060599;28;20273;-82
2022/06/09 12:27:21;;;;;;;10.15;9.85;;;21.80;99.90;;;;;;5059316;28;20239;-82
2022/06/09 12:30:39;;;;;;;9.90;9.60;;;22.00;99.90;;;;;;5060399;28;20239;-82
2022/06/09 12:33:31;;;;;;;9.88;9.57;;;22.30;99.90;;;;;;5059727;28;20235;-81
2022/06/09 12:36:06;;;;;;;10.60;10.30;;;22.10;99.90;;;;;;5049261;28;20233;-82
2022/06/09 12:38:41;;;;;;;10.73;10.43;;;22.00;99.90;;;;;;5058970;28;20313;-82
2022/06/09 12:41:29;;;;;;;10.70;10.40;;;21.80;99.90;;;;;;5059257;28;20240;-81
2022/06/09 12:44:05;;;;;;;10.70;10.40;;;21.80;99.90;;;;;;5059022;28;20302;-81
2022/06/09 12:46:35;;;;;;;10.73;10.43;;;21.70;99.90;;;;;;5059237;28;20327;-81
2022/06/09 12:49:16;;;;;;;10.48;10.18;;;21.70;99.90;;;;;;5058759;28;20223;-81
2022/06/09 12:51:44;;;;;;;10.80;10.50;;;21.60;99.90;;;;;;5058972;28;20326;-81
2022/06/09 12:54:30;;;;;;;10.55;10.25;;;21.60;99.90;;;;;;5058850;28;20273;-81
2022/06/09 12:57:04;;;;;;;10.57;10.27;;;21.60;99.90;;;;;;5058956;28;20278;-81
2022/06/09 12:59:35;;;;;;;10.40;10.10;;;21.70;99.90;;;;;;5058866;28;20237;-82
2022/06/09 13:02:24;;;;;;;10.85;10.55;;;21.80;99.90;;;;;;5058374;28;20253;-82
2022/06/09 13:04:56;;;;;;;10.73;10.43;;;21.60;99.90;;;;;;5058661;28;20268;-82
2022/06/09 13:07:28;;;;;;;10.60;10.30;;;21.60;99.90;;;;;;5058796;28;20235;-82
2022/06/09 13:10:29;;;;;;;;;;;;;;;;;;;;;
2022/06/09 13:13:04;;;;;;;10.50;10.20;;;21.70;99.90;;;;;;5059077;28;20321;-82
2022/06/09 13:15:43;;;;;;;10.18;9.88;;;21.40;99.90;;;;;;5060741;28;20237;-81
2022/06/09 13:18:18;;;;;;;10.32;10.02;;;21.00;99.90;;;;;;5060208;28;20234;-81
2022/06/09 13:20:53;;;;;;;9.98;9.68;;;20.60;99.90;;;;;;5060812;28;20226;-82
2022/06/09 13:23:22;;;;;;;10.60;10.30;;;20.30;99.90;;;;;;5060645;28;20230;-82
2022/06/09 13:25:52;;;;;;;10.20;9.90;;;20.30;99.90;;;;;;5060340;28;20230;-83
2022/06/09 13:28:34;;;;;;;10.50;10.20;;;20.30;99.90;;;;;;5059650;28;20234;-82
2022/06/09 13:31:10;;;;;;;10.60;10.30;;;20.30;99.90;;;;;;5059341;28;20292;-82
2022/06/09 13:33:55;;;;;;;10.65;10.35;;;20.20;99.90;;;;;;5058917;28;20230;-82
2022/06/09 13:36:31;;;;;;;10.10;9.80;;;20.20;99.90;;;;;;5058524;28;20293;-83
2022/06/09 13:39:25;;;;;;;10.30;10.00;;;20.40;99.90;;;;;;5058316;28;20261;-81
2022/06/09 13:42:04;;;;;;;10.00;9.70;;;20.60;99.90;;;;;;5058972;28;20314;-81
2022/06/09 13:44:37;;;;;;;10.02;9.73;;;20.80;99.90;;;;;;5060071;28;20321;-83
2022/06/09 13:47:15;;;;;;;10.10;9.80;;;20.80;99.90;;;;;;5059343;28;20317;-82
2022/06/09 13:49:49;;;;;;;10.15;9.85;;;20.60;99.90;;;;;;5076064;28;20223;-82
2022/06/09 13:52:32;;;;;;;10.25;9.95;;;20.60;99.90;;;;;;5073243;28;20786;-82
2022/06/09 13:55:01;;;;;;;10.52;10.23;;;20.50;99.90;;;;;;5063249;28;20234;-82
2022/06/09 13:57:35;;;;;;;10.85;10.55;;;20.50;99.90;;;;;;5060502;28;20245;-82
2022/06/09 14:00:08;;;;;;;10.80;10.50;;;20.50;99.90;;;;;;5059455;28;20246;-82
2022/06/09 14:02:48;;;;;;;10.85;10.55;;;20.30;99.90;;;;;;5059805;28;20249;-82
2022/06/09 14:05:16;;;;;;;10.75;10.45;;;20.10;99.90;;;;;;5058003;28;20246;-83
2022/06/09 14:07:44;;;;;;;10.60;10.30;;;20.00;99.90;;;;;;5058684;28;20241;-82
2022/06/09 14:10:24;;;;;;;10.88;10.57;;;20.00;99.90;;;;;;5066884;28;20258;-82